createdAt,value
2019-05-01T00:01:11.416Z,18.63
2019-05-01T00:04:01.367Z,18.70
2019-05-01T00:06:36.892Z,17.13
2019-05-01T00:09:09.117Z,16.87
2019-05-01T00:11:38.937Z,17.53
2019-05-01T00:14:09.323Z,18.63
2019-05-01T00:16:39.317Z,17.97
2019-05-01T00:19:09.101Z,17.73
2019-05-01T00:21:38.884Z,17.67
2019-05-01T00:24:08.618Z,17.87
2019-05-01T00:26:38.302Z,15.67
2019-05-01T00:29:08.094Z,16.73
2019-05-01T00:31:37.984Z,16.90
2019-05-01T00:34:07.842Z,17.43
2019-05-01T00:36:37.691Z,17.43
2019-05-01T00:39:09.300Z,15.83
2019-05-01T00:41:39.786Z,16.07
2019-05-01T00:44:09.489Z,15.97
2019-05-01T00:46:39.236Z,16.53
2019-05-01T00:49:09.025Z,17.77
2019-05-01T00:51:38.720Z,14.47
2019-05-01T00:54:08.419Z,15.23
2019-05-01T00:56:48.935Z,17.77
2019-05-01T00:59:26.604Z,15.13
2019-05-01T01:02:11.543Z,13.43
2019-05-01T01:04:41.305Z,14.60
2019-05-01T01:07:10.988Z,15.50
2019-05-01T01:09:40.681Z,14.30
2019-05-01T01:12:10.359Z,15.47
2019-05-01T01:14:40.160Z,16.33
2019-05-01T01:17:09.844Z,14.87
2019-05-01T01:19:39.582Z,15.17
2019-05-01T01:22:09.275Z,14.73
2019-05-01T01:24:39.114Z,16.03
2019-05-01T01:27:09.106Z,16.10
2019-05-01T01:29:39.133Z,15.97
2019-05-01T01:32:10.014Z,15.87
2019-05-01T01:34:39.935Z,14.93
2019-05-01T01:37:09.746Z,15.60
2019-05-01T01:39:39.792Z,11.37
2019-05-01T01:42:10.106Z,15.40
2019-05-01T01:44:51.708Z,16.90
2019-05-01T01:47:21.816Z,14.80
2019-05-01T01:49:51.861Z,14.53
2019-05-01T01:52:22.803Z,14.60
2019-05-01T01:54:52.959Z,14.13
2019-05-01T01:57:23.233Z,13.97
2019-05-01T01:59:53.381Z,14.83
2019-05-01T02:02:51.386Z,15.13
2019-05-01T02:05:30.738Z,13.57
2019-05-01T02:08:00.671Z,13.47
2019-05-01T02:10:42.339Z,15.37
2019-05-01T02:13:02.585Z,12.83
2019-05-01T02:15:32.364Z,13.67
2019-05-01T02:18:02.317Z,13.20
2019-05-01T02:20:32.190Z,12.93
2019-05-01T02:23:02.002Z,14.67
2019-05-01T02:25:33.522Z,12.90
2019-05-01T02:28:31.596Z,13.07
2019-05-01T02:31:27.582Z,14.13
2019-05-01T02:33:44.582Z,14.10
2019-05-01T02:36:15.560Z,13.97
2019-05-01T02:38:47.352Z,14.67
2019-05-01T02:41:19.446Z,14.27
2019-05-01T02:43:52.172Z,13.63
2019-05-01T02:46:23.226Z,14.77
2019-05-01T02:48:59.707Z,13.13
2019-05-01T02:51:29.587Z,14.30
2019-05-01T02:54:01.318Z,15.77
2019-05-01T02:56:56.342Z,13.93
2019-05-01T02:59:29.377Z,13.37
2019-05-01T03:02:01.749Z,13.10
2019-05-01T03:04:32.934Z,15.27
2019-05-01T03:07:04.304Z,15.27
2019-05-01T03:09:35.221Z,14.47
2019-05-01T03:12:06.379Z,13.90
2019-05-01T03:14:39.743Z,13.87
2019-05-01T03:17:29.717Z,14.03
2019-05-01T03:20:11.318Z,11.90
2019-05-01T03:23:00.088Z,13.90
2019-05-01T03:25:30.234Z,11.00
2019-05-01T03:28:00.044Z,12.57
2019-05-01T03:30:30.112Z,14.57
2019-05-01T03:33:00.334Z,13.23
2019-05-01T03:35:30.369Z,12.63
2019-05-01T03:38:00.281Z,14.67
2019-05-01T03:40:30.521Z,13.37
2019-05-01T03:43:00.767Z,16.60
2019-05-01T03:45:33.978Z,14.43
2019-05-01T03:48:02.229Z,11.47
2019-05-01T03:50:32.489Z,12.00
2019-05-01T03:53:02.850Z,14.23
2019-05-01T03:55:32.953Z,13.63
2019-05-01T03:58:03.157Z,14.30
2019-05-01T04:00:47.049Z,13.77
2019-05-01T04:03:21.191Z,12.30
2019-05-01T04:05:51.366Z,12.63
2019-05-01T04:08:21.312Z,13.17
2019-05-01T04:10:51.347Z,13.33
2019-05-01T04:13:21.312Z,13.30
2019-05-01T04:15:52.795Z,12.57
2019-05-01T04:18:22.920Z,11.03
2019-05-01T04:20:52.745Z,15.17
2019-05-01T04:23:22.649Z,12.83
2019-05-01T04:25:52.591Z,14.27
2019-05-01T04:28:44.651Z,15.20
2019-05-01T04:31:30.130Z,12.73
2019-05-01T04:34:03.179Z,12.33
2019-05-01T04:36:38.031Z,12.93
2019-05-01T04:39:08.398Z,12.17
2019-05-01T04:41:38.175Z,11.97
2019-05-01T04:44:09.016Z,13.70
2019-05-01T04:46:39.011Z,13.73
2019-05-01T04:49:08.871Z,13.37
2019-05-01T04:51:39.456Z,12.57
2019-05-01T04:54:10.479Z,13.77
2019-05-01T04:56:40.382Z,11.93
2019-05-01T04:59:10.746Z,10.67
2019-05-01T05:01:57.243Z,12.33
2019-05-01T05:04:27.471Z,12.50
2019-05-01T05:06:57.613Z,13.10
2019-05-01T05:09:42.661Z,10.80
2019-05-01T05:12:22.255Z,10.93
2019-05-01T05:14:56.689Z,11.43
2019-05-01T05:17:26.984Z,13.63
2019-05-01T05:19:57.108Z,13.27
2019-05-01T05:22:26.892Z,12.30
2019-05-01T05:24:56.884Z,12.50
2019-05-01T05:27:27.749Z,11.37
2019-05-01T05:29:58.119Z,11.97
2019-05-01T05:32:30.272Z,13.17
2019-05-01T05:35:01.870Z,8.57
2019-05-01T05:37:39.273Z,12.70
2019-05-01T05:40:09.293Z,12.43
2019-05-01T05:42:39.361Z,11.73
2019-05-01T05:45:09.219Z,11.13
2019-05-01T05:47:39.276Z,12.17
2019-05-01T05:50:10.722Z,10.83
2019-05-01T05:52:48.306Z,10.63
2019-05-01T05:55:35.779Z,11.50
2019-05-01T05:58:26.200Z,9.93
2019-05-01T06:01:05.790Z,9.87
2019-05-01T06:03:54.467Z,9.37
2019-05-01T06:07:05.197Z,10.10
2019-05-01T06:09:58.968Z,10.83
2019-05-01T06:12:46.779Z,9.67
2019-05-01T06:15:27.087Z,11.47
2019-05-01T06:18:05.779Z,10.37
2019-05-01T06:20:45.594Z,10.03
2019-05-01T06:23:39.929Z,9.80
2019-05-01T06:26:32.015Z,10.50
2019-05-01T06:29:03.586Z,11.27
2019-05-01T06:31:34.237Z,10.90
2019-05-01T06:34:04.464Z,10.30
2019-05-01T06:36:34.592Z,10.20
2019-05-01T06:39:11.984Z,11.60
2019-05-01T06:41:44.858Z,10.87
2019-05-01T06:44:21.156Z,9.83
2019-05-01T06:47:13.419Z,9.67
2019-05-01T06:49:56.462Z,9.20
2019-05-01T06:52:29.387Z,10.27
2019-05-01T06:55:00.352Z,7.37
2019-05-01T06:57:31.025Z,9.90
2019-05-01T07:00:03.302Z,8.93
2019-05-01T07:02:34.935Z,10.77
2019-05-01T07:05:09.084Z,10.13
2019-05-01T07:07:38.055Z,10.67
2019-05-01T07:10:07.990Z,9.93
2019-05-01T07:12:38.294Z,10.90
2019-05-01T07:15:08.446Z,10.17
2019-05-01T07:17:38.542Z,10.27
2019-05-01T07:20:25.676Z,7.13
2019-05-01T07:22:56.035Z,10.13
2019-05-01T07:25:40.676Z,6.87
2019-05-01T07:28:10.276Z,8.83
2019-05-01T07:30:49.965Z,10.00
2019-05-01T07:33:20.587Z,10.67
2019-05-01T07:35:53.839Z,11.10
2019-05-01T07:38:22.511Z,11.87
2019-05-01T07:40:52.550Z,10.93
2019-05-01T07:43:28.499Z,10.50
2019-05-01T07:46:32.738Z,10.77
2019-05-01T07:49:03.364Z,8.67
2019-05-01T07:51:37.798Z,9.77
2019-05-01T07:54:08.897Z,9.30
2019-05-01T07:56:37.084Z,8.63
2019-05-01T07:59:06.868Z,9.10
2019-05-01T08:01:54.397Z,9.10
2019-05-01T08:04:35.852Z,7.47
2019-05-01T08:06:57.073Z,8.63
2019-05-01T08:09:27.111Z,10.17
2019-05-01T08:11:56.789Z,10.30
2019-05-01T08:14:26.495Z,13.13
2019-05-01T08:16:56.189Z,9.73
2019-05-01T08:19:34.832Z,10.27
2019-05-01T08:22:10.206Z,8.97
2019-05-01T08:24:39.927Z,9.00
2019-05-01T08:27:20.228Z,9.67
2019-05-01T08:30:08.303Z,7.63
2019-05-01T08:32:51.931Z,9.23
2019-05-01T08:35:23.117Z,9.33
2019-05-01T08:37:53.857Z,9.70
2019-05-01T08:40:24.571Z,9.57
2019-05-01T08:42:54.246Z,9.53
2019-05-01T08:45:42.830Z,9.50
2019-05-01T08:48:23.330Z,10.33
2019-05-01T08:50:54.566Z,9.40
2019-05-01T08:53:24.870Z,9.20
2019-05-01T08:55:54.633Z,10.83
2019-05-01T08:58:24.340Z,10.27
2019-05-01T09:00:54.028Z,10.27
2019-05-01T09:03:23.801Z,10.07
2019-05-01T09:05:57.354Z,10.10
2019-05-01T09:08:27.173Z,9.63
2019-05-01T09:11:00.220Z,9.67
2019-05-01T09:13:27.619Z,9.33
2019-05-01T09:15:57.394Z,9.97
2019-05-01T09:18:27.385Z,8.60
2019-05-01T09:20:58.338Z,9.10
2019-05-01T09:23:28.170Z,7.57
2019-05-01T09:26:18.057Z,8.50
2019-05-01T09:28:53.535Z,9.57
2019-05-01T09:31:24.909Z,9.40
2019-05-01T09:33:54.743Z,8.73
2019-05-01T09:36:24.513Z,9.40
2019-05-01T09:38:54.351Z,9.10
2019-05-01T09:41:37.141Z,8.80
2019-05-01T09:43:55.639Z,8.90
2019-05-01T09:46:25.433Z,9.33
2019-05-01T09:48:55.463Z,9.07
2019-05-01T09:51:42.615Z,8.67
2019-05-01T09:54:15.457Z,8.67
2019-05-01T09:56:45.158Z,8.83
2019-05-01T09:59:17.516Z,9.17
2019-05-01T10:01:46.268Z,8.90
2019-05-01T10:04:16.045Z,9.77
2019-05-01T10:06:47.786Z,9.33
2019-05-01T10:09:18.079Z,8.67
2019-05-01T10:11:47.904Z,8.67
2019-05-01T10:14:18.988Z,9.00
2019-05-01T10:16:48.961Z,8.77
2019-05-01T10:19:18.755Z,8.80
2019-05-01T10:21:48.448Z,8.07
2019-05-01T10:24:18.131Z,8.10
2019-05-01T10:26:49.730Z,8.07
2019-05-01T10:29:36.884Z,8.07
2019-05-01T10:32:21.503Z,7.30
2019-05-01T10:34:56.525Z,7.80
2019-05-01T10:37:28.297Z,6.57
2019-05-01T10:39:56.573Z,7.47
2019-05-01T10:42:26.284Z,7.40
2019-05-01T10:44:56.625Z,6.80
2019-05-01T10:47:26.343Z,7.37
2019-05-01T10:49:56.036Z,6.63
2019-05-01T10:52:25.741Z,7.47
2019-05-01T10:54:55.513Z,7.37
2019-05-01T10:57:25.292Z,7.03
2019-05-01T10:59:54.979Z,7.23
2019-05-01T11:02:24.674Z,6.93
2019-05-01T11:04:54.423Z,5.73
2019-05-01T11:07:24.252Z,5.33
2019-05-01T11:09:53.961Z,6.17
2019-05-01T11:12:23.640Z,3.97
2019-05-01T11:14:53.398Z,5.83
2019-05-01T11:17:23.151Z,6.23
2019-05-01T11:19:52.923Z,5.63
2019-05-01T11:22:22.623Z,5.23
2019-05-01T11:24:52.436Z,5.20
2019-05-01T11:27:22.386Z,6.17
2019-05-01T11:29:53.091Z,5.80
2019-05-01T11:32:49.174Z,5.77
2019-05-01T11:35:49.802Z,5.07
2019-05-01T11:38:25.841Z,5.33
2019-05-01T11:41:00.000Z,5.13
2019-05-01T11:43:29.709Z,5.60
2019-05-01T11:45:59.383Z,5.90
2019-05-01T11:48:30.506Z,5.70
2019-05-01T11:51:00.486Z,5.57
2019-05-01T11:53:30.221Z,5.30
2019-05-01T11:55:59.878Z,5.90
2019-05-01T11:58:29.621Z,5.37
2019-05-01T12:01:01.026Z,5.37
2019-05-01T12:03:31.733Z,4.03
2019-05-01T12:06:01.414Z,5.20
2019-05-01T12:08:31.068Z,4.80
2019-05-01T12:11:01.986Z,4.90
2019-05-01T12:13:43.226Z,5.00
2019-05-01T12:16:12.287Z,4.93
2019-05-01T12:18:41.951Z,4.53
2019-05-01T12:21:12.053Z,4.80
2019-05-01T12:23:41.827Z,4.53
2019-05-01T12:26:11.520Z,5.00
2019-05-01T12:28:41.209Z,4.20
2019-05-01T12:31:10.926Z,4.60
2019-05-01T12:33:40.791Z,5.50
2019-05-01T12:36:10.790Z,4.33
2019-05-01T12:38:40.478Z,5.00
2019-05-01T12:41:27.850Z,4.73
2019-05-01T12:43:58.592Z,4.70
2019-05-01T12:46:45.920Z,5.00
2019-05-01T12:49:15.965Z,3.90
2019-05-01T12:51:47.735Z,3.97
2019-05-01T12:54:29.344Z,4.13
2019-05-01T12:56:59.040Z,3.20
2019-05-01T12:59:28.852Z,3.20
2019-05-01T13:01:58.806Z,3.67
2019-05-01T13:04:28.689Z,3.33
2019-05-01T13:06:59.594Z,3.73
2019-05-01T13:09:29.267Z,3.07
2019-05-01T13:11:59.311Z,2.87
2019-05-01T13:14:29.119Z,3.30
2019-05-01T13:16:58.801Z,3.57
2019-05-01T13:19:28.546Z,4.07
2019-05-01T13:21:58.310Z,2.33
2019-05-01T13:24:27.990Z,3.40
2019-05-01T13:27:25.450Z,3.60
2019-05-01T13:30:03.825Z,3.10
2019-05-01T13:32:44.839Z,3.40
2019-05-01T13:35:15.094Z,2.77
2019-05-01T13:37:45.135Z,3.47
2019-05-01T13:40:16.158Z,3.50
2019-05-01T13:42:45.963Z,3.43
2019-05-01T13:45:16.111Z,2.80
2019-05-01T13:47:45.873Z,2.47
2019-05-01T13:50:15.962Z,3.10
2019-05-01T13:52:45.665Z,3.20
2019-05-01T13:55:16.800Z,3.00
2019-05-01T13:57:46.783Z,2.30
2019-05-01T14:00:17.889Z,3.27
2019-05-01T14:02:47.639Z,3.23
2019-05-01T14:05:17.764Z,2.63
2019-05-01T14:07:47.512Z,3.00
2019-05-01T14:10:17.352Z,3.20
2019-05-01T14:12:47.340Z,2.80
2019-05-01T14:15:17.200Z,3.57
2019-05-01T14:17:46.966Z,2.97
2019-05-01T14:20:27.678Z,3.10
2019-05-01T14:23:01.827Z,3.40
2019-05-01T14:25:50.536Z,3.13
2019-05-01T14:28:20.312Z,2.97
2019-05-01T14:30:50.251Z,3.33
2019-05-01T14:33:19.941Z,3.80
2019-05-01T14:35:49.755Z,3.60
2019-05-01T14:38:19.590Z,3.47
2019-05-01T14:40:49.289Z,3.17
2019-05-01T14:43:18.969Z,3.27
2019-05-01T14:45:48.839Z,2.90
2019-05-01T14:48:18.603Z,3.43
2019-05-01T14:50:48.360Z,3.10
2019-05-01T14:53:18.037Z,3.80
2019-05-01T14:55:48.914Z,3.50
2019-05-01T14:58:18.659Z,3.50
2019-05-01T15:00:48.510Z,3.40
2019-05-01T15:03:18.376Z,3.37
2019-05-01T15:05:48.077Z,3.33
2019-05-01T15:08:17.868Z,3.63
2019-05-01T15:10:47.652Z,3.97
2019-05-01T15:13:36.302Z,3.67
2019-05-01T15:16:13.089Z,3.63
2019-05-01T15:18:56.216Z,3.40
2019-05-01T15:21:25.953Z,3.93
2019-05-01T15:23:55.630Z,4.10
2019-05-01T15:26:25.381Z,3.47
2019-05-01T15:28:55.083Z,3.67
2019-05-01T15:31:24.812Z,4.50
2019-05-01T15:33:55.489Z,3.97
2019-05-01T15:36:25.220Z,3.90
2019-05-01T15:38:55.274Z,3.97
2019-05-01T15:41:49.689Z,3.73
2019-05-01T15:44:21.388Z,3.60
2019-05-01T15:46:51.221Z,3.57
2019-05-01T15:49:20.942Z,3.90
2019-05-01T15:51:50.743Z,4.60
2019-05-01T15:54:20.427Z,3.90
2019-05-01T15:56:50.337Z,4.23
2019-05-01T15:59:20.250Z,4.23
2019-05-01T16:01:50.010Z,4.13
2019-05-01T16:04:20.746Z,4.13
2019-05-01T16:06:50.420Z,3.83
2019-05-01T16:09:20.191Z,3.27
2019-05-01T16:12:11.694Z,3.70
2019-05-01T16:14:44.349Z,3.17
2019-05-01T16:17:14.065Z,3.70
2019-05-01T16:19:43.754Z,3.77
2019-05-01T16:22:14.519Z,2.80
2019-05-01T16:24:44.274Z,3.10
2019-05-01T16:27:14.038Z,3.70
2019-05-01T16:29:43.741Z,3.20
2019-05-01T16:32:13.448Z,3.73
2019-05-01T16:34:43.251Z,3.60
2019-05-01T16:37:21.236Z,3.97
2019-05-01T16:39:57.747Z,3.90
2019-05-01T16:42:35.653Z,3.50
2019-05-01T16:45:06.388Z,3.43
2019-05-01T16:47:36.255Z,3.60
2019-05-01T16:50:07.719Z,4.07
2019-05-01T16:52:37.628Z,3.90
2019-05-01T16:55:08.614Z,3.63
2019-05-01T16:57:38.413Z,4.37
2019-05-01T17:00:10.428Z,4.20
2019-05-01T17:03:05.566Z,3.97
2019-05-01T17:06:14.420Z,4.50
2019-05-01T17:08:51.593Z,4.40
2019-05-01T17:11:25.228Z,4.20
2019-05-01T17:13:55.149Z,4.10
2019-05-01T17:16:24.934Z,4.67
2019-05-01T17:18:54.885Z,4.47
2019-05-01T17:21:24.681Z,4.33
2019-05-01T17:23:54.422Z,4.07
2019-05-01T17:26:24.190Z,4.00
2019-05-01T17:28:54.046Z,4.03
2019-05-01T17:31:25.336Z,4.10
2019-05-01T17:33:55.481Z,4.00
2019-05-01T17:36:26.564Z,3.37
2019-05-01T17:38:56.260Z,3.43
2019-05-01T17:41:27.238Z,3.23
2019-05-01T17:43:57.574Z,3.47
2019-05-01T17:46:27.277Z,3.00
2019-05-01T17:48:56.962Z,3.00
2019-05-01T17:51:26.652Z,3.07
2019-05-01T17:53:56.726Z,3.03
2019-05-01T17:56:28.596Z,2.67
2019-05-01T17:58:58.002Z,3.00
2019-05-01T18:07:40.413Z,2.60
2019-05-01T18:10:10.420Z,3.00
2019-05-01T18:12:40.094Z,2.83
2019-05-01T18:15:09.924Z,2.90
2019-05-01T18:17:39.662Z,3.10
2019-05-01T18:20:09.856Z,3.20
2019-05-01T18:22:57.376Z,3.00
2019-05-01T18:25:34.927Z,2.40
2019-05-01T18:28:25.004Z,2.60
2019-05-01T18:30:56.527Z,2.90
2019-05-01T18:33:25.890Z,3.10
2019-05-01T18:35:58.121Z,2.73
2019-05-01T18:38:47.594Z,2.50
2019-05-01T18:41:18.670Z,3.07
2019-05-01T18:43:48.319Z,3.17
2019-05-01T18:46:18.100Z,3.20
2019-05-01T18:48:47.778Z,3.17
2019-05-01T18:51:17.494Z,2.90
2019-05-01T18:53:47.231Z,2.90
2019-05-01T18:56:17.051Z,3.10
2019-05-01T18:58:46.712Z,2.87
2019-05-01T19:01:16.590Z,3.03
2019-05-01T19:03:46.411Z,2.97
2019-05-01T19:07:13.007Z,3.33
2019-05-01T19:12:59.405Z,3.33
2019-05-01T19:15:29.348Z,3.50
2019-05-01T19:17:59.361Z,3.30
2019-05-01T19:20:29.154Z,3.70
2019-05-01T19:22:58.823Z,3.23
2019-05-01T19:25:28.699Z,3.17
2019-05-01T19:27:58.485Z,3.33
2019-05-01T19:30:28.284Z,4.40
2019-05-01T19:33:07.432Z,3.63
2019-05-01T19:36:08.334Z,3.83
2019-05-01T19:38:44.160Z,3.70
2019-05-01T19:41:15.495Z,3.93
2019-05-01T19:43:48.889Z,3.63
2019-05-01T19:46:22.739Z,4.27
2019-05-01T19:48:54.453Z,3.57
2019-05-01T19:51:30.712Z,4.03
2019-05-01T19:54:00.553Z,4.13
2019-05-01T19:56:40.559Z,4.93
2019-05-01T19:59:14.272Z,3.47
2019-05-01T20:01:49.625Z,3.87
2019-05-01T20:04:26.548Z,4.70
2019-05-01T20:06:56.069Z,4.37
2019-05-01T20:09:26.670Z,4.80
2019-05-01T20:11:56.432Z,4.80
2019-05-01T20:14:27.645Z,4.63
2019-05-01T20:17:04.689Z,5.27
2019-05-01T20:19:38.305Z,5.13
2019-05-01T20:22:13.307Z,4.77
2019-05-01T20:24:54.514Z,4.73
2019-05-01T20:27:27.673Z,4.87
2019-05-01T20:30:01.404Z,4.53
2019-05-01T20:32:34.845Z,4.80
2019-05-01T20:35:06.188Z,4.37
2019-05-01T20:37:36.174Z,5.03
2019-05-01T20:40:11.273Z,5.27
2019-05-01T20:42:39.553Z,5.20
2019-05-01T20:45:17.523Z,5.53
2019-05-01T20:47:46.233Z,5.40
2019-05-01T20:50:16.885Z,5.90
2019-05-01T20:52:46.687Z,5.00
2019-05-01T20:55:16.560Z,5.70
2019-05-01T20:57:47.099Z,5.70
2019-05-01T21:00:19.658Z,6.93
2019-05-01T21:02:54.946Z,6.17
2019-05-01T21:09:00.865Z,5.20
2019-05-01T21:11:35.388Z,5.33
2019-05-01T21:14:25.253Z,5.47
2019-05-01T21:16:56.263Z,5.37
2019-05-01T21:19:32.506Z,4.80
2019-05-01T21:22:17.839Z,4.67
2019-05-01T21:24:47.683Z,4.77
2019-05-01T21:27:17.358Z,4.53
2019-05-01T21:29:47.023Z,5.37
2019-05-01T21:32:18.370Z,5.43
2019-05-01T21:34:48.088Z,5.20
2019-05-01T21:37:18.079Z,4.90
2019-05-01T21:39:47.750Z,4.40
2019-05-01T21:42:17.488Z,5.00
2019-05-01T21:44:47.192Z,4.17
2019-05-01T21:47:16.870Z,5.10
2019-05-01T21:49:46.617Z,5.17
2019-05-01T21:52:17.918Z,4.87
2019-05-01T21:54:50.252Z,4.57
2019-05-01T21:57:19.313Z,4.57
2019-05-01T21:59:48.958Z,4.80
2019-05-01T22:02:28.055Z,4.90
2019-05-01T22:04:57.752Z,4.53
2019-05-01T22:07:28.987Z,6.17
2019-05-01T22:09:59.859Z,5.20
2019-05-01T22:12:31.253Z,5.00
2019-05-01T22:15:06.279Z,4.83
2019-05-01T22:18:19.659Z,4.30
2019-05-01T22:20:54.389Z,5.40
2019-05-01T22:23:24.162Z,4.33
2019-05-01T22:25:57.589Z,4.87
2019-05-01T22:28:36.796Z,4.00
2019-05-01T22:31:28.829Z,4.60
2019-05-01T22:34:06.838Z,3.77
2019-05-01T22:36:36.610Z,3.70
2019-05-01T22:39:07.674Z,3.37
2019-05-01T22:41:39.079Z,4.70
2019-05-01T22:44:12.837Z,4.03
2019-05-01T22:46:41.483Z,3.90
2019-05-01T22:49:11.275Z,4.60
2019-05-01T22:51:42.695Z,3.77
2019-05-01T22:54:12.460Z,4.50
2019-05-01T22:56:42.225Z,4.77
2019-05-01T22:59:12.509Z,4.40
2019-05-01T23:02:24.211Z,4.43
2019-05-01T23:04:53.241Z,3.47
2019-05-01T23:07:23.275Z,3.27
2019-05-01T23:09:52.972Z,3.97
2019-05-01T23:12:22.663Z,3.33
2019-05-01T23:14:52.720Z,3.50
2019-05-01T23:17:28.602Z,3.33
2019-05-01T23:19:58.975Z,2.97
2019-05-01T23:22:30.107Z,3.87
2019-05-01T23:24:59.878Z,3.33
2019-05-01T23:27:30.773Z,4.40
2019-05-01T23:30:00.617Z,3.80
2019-05-01T23:32:30.297Z,2.97
2019-05-01T23:35:00.000Z,3.43
2019-05-01T23:37:29.702Z,4.20
2019-05-01T23:39:59.344Z,2.70
2019-05-01T23:42:29.026Z,3.53
2019-05-01T23:44:58.728Z,3.70
2019-05-01T23:47:28.540Z,4.13
2019-05-01T23:49:59.183Z,2.73
2019-05-01T23:52:28.846Z,4.30
2019-05-01T23:54:58.672Z,2.13
2019-05-01T23:57:28.355Z,3.20
2019-05-01T23:59:58.153Z,3.43
